ADDS METAR Data

Data at: 1027 UTC 20 Jul 2018

METAR for:KFOK (Westhampton/Gabreski, NY, US)
Text:KFOK 200953Z AUTO 00000KT 10SM CLR 12/10 A3017 RMK AO2 SLP216 T01170100 $
Temperature: 11.7°C ( 53°F)
Dewpoint: 10.0°C ( 50°F) [RH = 89%]
Pressure (altimeter):30.17 inches Hg (1021.8 mb) [Sea level pressure: 1021.6 mb]
Winds:calm
Visibility:10 or more sm (16+ km)
Ceiling:at least 12,000 feet AGL
Clouds:sky clear below 12,000 feet AGL
QC Flag:automated observation with no human augmentation; SOME DATA ABOVE MAY BE INACCURATE!!!"$" is an indication the sensor requires maintenance.